sensor_id;sensor_type;location;lat;lon;timestamp;pressure;altitude;pressure_sealevel;temperature
42197;BMP280;27866;48.146;17.098;2022-09-17T00:02:30;98876.94;;;17.06
42197;BMP280;27866;48.146;17.098;2022-09-17T00:06:41;98885.44;;;17.00
42197;BMP280;27866;48.146;17.098;2022-09-17T00:10:53;98863.34;;;17.02
42197;BMP280;27866;48.146;17.098;2022-09-17T00:15:05;98850.63;;;16.99
42197;BMP280;27866;48.146;17.098;2022-09-17T00:19:21;98864.50;;;16.92
42197;BMP280;27866;48.146;17.098;2022-09-17T00:23:33;98885.44;;;16.84
42197;BMP280;27866;48.146;17.098;2022-09-17T00:27:45;98875.59;;;16.79
42197;BMP280;27866;48.146;17.098;2022-09-17T00:31:57;98882.78;;;16.77
42197;BMP280;27866;48.146;17.098;2022-09-17T00:36:08;98870.84;;;16.74
42197;BMP280;27866;48.146;17.098;2022-09-17T00:40:20;98865.13;;;16.71
42197;BMP280;27866;48.146;17.098;2022-09-17T00:49:13;98845.50;;;16.59
42197;BMP280;27866;48.146;17.098;2022-09-17T00:53:25;98849.78;;;16.52
42197;BMP280;27866;48.146;17.098;2022-09-17T00:57:39;98868.38;;;16.50
42197;BMP280;27866;48.146;17.098;2022-09-17T01:01:51;98864.63;;;16.52
42197;BMP280;27866;48.146;17.098;2022-09-17T01:06:50;98875.09;;;16.60
42197;BMP280;27866;48.146;17.098;2022-09-17T01:34:17;98898.78;;;16.66
42197;BMP280;27866;48.146;17.098;2022-09-17T01:43:11;98875.56;;;16.63
42197;BMP280;27866;48.146;17.098;2022-09-17T01:47:42;98860.38;;;16.67
42197;BMP280;27866;48.146;17.098;2022-09-17T01:51:55;98863.81;;;16.67
42197;BMP280;27866;48.146;17.098;2022-09-17T01:56:09;98863.81;;;16.67
42197;BMP280;27866;48.146;17.098;2022-09-17T02:00:23;98878.53;;;16.68
42197;BMP280;27866;48.146;17.098;2022-09-17T02:04:45;98870.19;;;16.72
42197;BMP280;27866;48.146;17.098;2022-09-17T02:18:05;98844.22;;;16.71
42197;BMP280;27866;48.146;17.098;2022-09-17T02:22:33;98851.88;;;16.65
42197;BMP280;27866;48.146;17.098;2022-09-17T02:31:35;98837.50;;;16.61
42197;BMP280;27866;48.146;17.098;2022-09-17T02:35:47;98841.59;;;16.55
42197;BMP280;27866;48.146;17.098;2022-09-17T02:39:58;98825.09;;;16.55
42197;BMP280;27866;48.146;17.098;2022-09-17T02:44:23;98833.09;;;16.53
42197;BMP280;27866;48.146;17.098;2022-09-17T02:48:59;98843.22;;;16.49
42197;BMP280;27866;48.146;17.098;2022-09-17T02:58:30;98820.19;;;16.37
42197;BMP280;27866;48.146;17.098;2022-09-17T03:07:27;98813.47;;;16.19
42197;BMP280;27866;48.146;17.098;2022-09-17T03:11:40;98807.59;;;16.17
42197;BMP280;27866;48.146;17.098;2022-09-17T03:15:52;98809.69;;;16.21
42197;BMP280;27866;48.146;17.098;2022-09-17T03:20:03;98815.09;;;16.20
42197;BMP280;27866;48.146;17.098;2022-09-17T03:24:16;98817.41;;;16.23
42197;BMP280;27866;48.146;17.098;2022-09-17T03:28:27;98823.94;;;16.26
42197;BMP280;27866;48.146;17.098;2022-09-17T03:32:38;98839.28;;;16.29
42197;BMP280;27866;48.146;17.098;2022-09-17T03:36:49;98830.44;;;16.30
42197;BMP280;27866;48.146;17.098;2022-09-17T03:41:04;98822.47;;;16.32
42197;BMP280;27866;48.146;17.098;2022-09-17T03:45:17;98810.56;;;16.37
42197;BMP280;27866;48.146;17.098;2022-09-17T03:49:28;98815.44;;;16.32
42197;BMP280;27866;48.146;17.098;2022-09-17T03:53:40;98800.75;;;16.31
42197;BMP280;27866;48.146;17.098;2022-09-17T03:57:51;98794.53;;;16.24
42197;BMP280;27866;48.146;17.098;2022-09-17T04:02:02;98779.81;;;16.16
42197;BMP280;27866;48.146;17.098;2022-09-17T04:06:14;98786.03;;;16.15
42197;BMP280;27866;48.146;17.098;2022-09-17T04:10:25;98778.22;;;16.15
42197;BMP280;27866;48.146;17.098;2022-09-17T04:14:37;98773.78;;;16.15
42197;BMP280;27866;48.146;17.098;2022-09-17T04:18:48;98769.38;;;16.16
42197;BMP280;27866;48.146;17.098;2022-09-17T04:23:00;98765.47;;;16.20
42197;BMP280;27866;48.146;17.098;2022-09-17T04:27:11;98776.25;;;16.17
42197;BMP280;27866;48.146;17.098;2022-09-17T04:31:23;98788.31;;;16.18
42197;BMP280;27866;48.146;17.098;2022-09-17T04:35:35;98808.88;;;16.13
42197;BMP280;27866;48.146;17.098;2022-09-17T04:39:46;98829.44;;;16.08
42197;BMP280;27866;48.146;17.098;2022-09-17T04:43:58;98827.81;;;16.07
42197;BMP280;27866;48.146;17.098;2022-09-17T04:48:09;98823.25;;;16.17
42197;BMP280;27866;48.146;17.098;2022-09-17T04:52:21;98815.25;;;16.18
42197;BMP280;27866;48.146;17.098;2022-09-17T04:56:32;98804.97;;;16.17
42197;BMP280;27866;48.146;17.098;2022-09-17T05:00:44;98780.66;;;16.16
42197;BMP280;27866;48.146;17.098;2022-09-17T05:04:56;98775.91;;;16.20
42197;BMP280;27866;48.146;17.098;2022-09-17T05:09:07;98780.50;;;16.25
42197;BMP280;27866;48.146;17.098;2022-09-17T05:13:18;98773.66;;;16.24
42197;BMP280;27866;48.146;17.098;2022-09-17T05:17:30;98733.47;;;16.25
42197;BMP280;27866;48.146;17.098;2022-09-17T05:21:41;98735.91;;;16.27
42197;BMP280;27866;48.146;17.098;2022-09-17T05:25:58;98760.91;;;16.45
42197;BMP280;27866;48.146;17.098;2022-09-17T05:30:11;98780.00;;;16.68
42197;BMP280;27866;48.146;17.098;2022-09-17T05:34:23;98777.06;;;16.79
42197;BMP280;27866;48.146;17.098;2022-09-17T05:38:34;98757.59;;;16.74
42197;BMP280;27866;48.146;17.098;2022-09-17T05:42:45;98783.09;;;16.80
42197;BMP280;27866;48.146;17.098;2022-09-17T05:46:57;98831.84;;;16.81
42197;BMP280;27866;48.146;17.098;2022-09-17T05:51:09;98816.94;;;16.66
42197;BMP280;27866;48.146;17.098;2022-09-17T05:55:22;98812.84;;;16.48
42197;BMP280;27866;48.146;17.098;2022-09-17T05:59:34;98827.88;;;16.53
42197;BMP280;27866;48.146;17.098;2022-09-17T06:03:46;98837.38;;;16.62
42197;BMP280;27866;48.146;17.098;2022-09-17T06:07:57;98846.34;;;16.52
42197;BMP280;27866;48.146;17.098;2022-09-17T06:12:09;98865.75;;;16.57
42197;BMP280;27866;48.146;17.098;2022-09-17T06:16:22;98862.19;;;16.58
42197;BMP280;27866;48.146;17.098;2022-09-17T06:20:33;98830.16;;;16.56
42197;BMP280;27866;48.146;17.098;2022-09-17T06:24:45;98812.50;;;16.74
42197;BMP280;27866;48.146;17.098;2022-09-17T06:28:58;98812.38;;;16.91
42197;BMP280;27866;48.146;17.098;2022-09-17T06:33:10;98805.47;;;17.13
42197;BMP280;27866;48.146;17.098;2022-09-17T06:37:29;98788.53;;;17.39
42197;BMP280;27866;48.146;17.098;2022-09-17T06:41:41;98801.28;;;17.49
42197;BMP280;27866;48.146;17.098;2022-09-17T06:46:01;98818.25;;;17.53
42197;BMP280;27866;48.146;17.098;2022-09-17T06:50:13;98835.00;;;17.37
42197;BMP280;27866;48.146;17.098;2022-09-17T06:54:24;98848.06;;;17.52
42197;BMP280;27866;48.146;17.098;2022-09-17T06:58:36;98858.16;;;17.55
42197;BMP280;27866;48.146;17.098;2022-09-17T07:02:59;98859.53;;;17.43
42197;BMP280;27866;48.146;17.098;2022-09-17T07:07:10;98852.66;;;17.35
42197;BMP280;27866;48.146;17.098;2022-09-17T07:11:22;98839.09;;;17.31
42197;BMP280;27866;48.146;17.098;2022-09-17T07:15:33;98833.97;;;17.53
42197;BMP280;27866;48.146;17.098;2022-09-17T07:19:45;98826.91;;;17.61
42197;BMP280;27866;48.146;17.098;2022-09-17T07:23:56;98825.91;;;17.70
42197;BMP280;27866;48.146;17.098;2022-09-17T07:28:08;98848.31;;;17.65
42197;BMP280;27866;48.146;17.098;2022-09-17T07:32:20;98847.00;;;17.68
42197;BMP280;27866;48.146;17.098;2022-09-17T07:36:32;98848.94;;;17.82
42197;BMP280;27866;48.146;17.098;2022-09-17T07:40:43;98876.13;;;17.89
42197;BMP280;27866;48.146;17.098;2022-09-17T07:44:55;98868.50;;;18.01
42197;BMP280;27866;48.146;17.098;2022-09-17T07:49:06;98860.19;;;17.98
42197;BMP280;27866;48.146;17.098;2022-09-17T07:53:18;98855.28;;;17.95
42197;BMP280;27866;48.146;17.098;2022-09-17T07:57:29;98847.13;;;17.90
42197;BMP280;27866;48.146;17.098;2022-09-17T08:01:41;98853.00;;;17.92
42197;BMP280;27866;48.146;17.098;2022-09-17T08:05:52;98870.50;;;17.99
42197;BMP280;27866;48.146;17.098;2022-09-17T08:10:04;98856.34;;;18.08
42197;BMP280;27866;48.146;17.098;2022-09-17T08:14:16;98840.59;;;18.16
42197;BMP280;27866;48.146;17.098;2022-09-17T08:18:27;98853.38;;;18.19
42197;BMP280;27866;48.146;17.098;2022-09-17T08:22:40;98867.53;;;18.32
42197;BMP280;27866;48.146;17.098;2022-09-17T08:26:52;98872.41;;;18.35
42197;BMP280;27866;48.146;17.098;2022-09-17T08:31:07;98869.09;;;18.19
42197;BMP280;27866;48.146;17.098;2022-09-17T08:35:19;98864.56;;;18.05
42197;BMP280;27866;48.146;17.098;2022-09-17T08:39:30;98875.91;;;17.98
42197;BMP280;27866;48.146;17.098;2022-09-17T08:48:15;98872.94;;;18.01
42197;BMP280;27866;48.146;17.098;2022-09-17T09:01:59;98895.56;;;17.94
42197;BMP280;27866;48.146;17.098;2022-09-17T09:06:14;98887.16;;;18.06
42197;BMP280;27866;48.146;17.098;2022-09-17T09:10:32;98899.44;;;18.06
42197;BMP280;27866;48.146;17.098;2022-09-17T09:15:35;98901.94;;;17.92
42197;BMP280;27866;48.146;17.098;2022-09-17T09:19:48;98898.00;;;17.96
42197;BMP280;27866;48.146;17.098;2022-09-17T09:24:25;98925.78;;;18.04
42197;BMP280;27866;48.146;17.098;2022-09-17T09:33:14;98931.34;;;18.17
42197;BMP280;27866;48.146;17.098;2022-09-17T09:37:32;98929.34;;;18.19
42197;BMP280;27866;48.146;17.098;2022-09-17T09:41:48;98925.91;;;18.18
42197;BMP280;27866;48.146;17.098;2022-09-17T09:46:46;98913.00;;;18.17
42197;BMP280;27866;48.146;17.098;2022-09-17T10:00:36;98870.88;;;18.18
42197;BMP280;27866;48.146;17.098;2022-09-17T10:04:47;98865.41;;;18.27
42197;BMP280;27866;48.146;17.098;2022-09-17T10:13:11;98850.72;;;18.48
42197;BMP280;27866;48.146;17.098;2022-09-17T10:17:25;98856.09;;;18.55
42197;BMP280;27866;48.146;17.098;2022-09-17T10:21:39;98890.50;;;18.52
42197;BMP280;27866;48.146;17.098;2022-09-17T10:25:52;98871.88;;;18.47
42197;BMP280;27866;48.146;17.098;2022-09-17T10:34:30;98863.03;;;18.91
42197;BMP280;27866;48.146;17.098;2022-09-17T10:38:44;98847.78;;;18.95
42197;BMP280;27866;48.146;17.098;2022-09-17T10:43:20;98843.78;;;18.99
42197;BMP280;27866;48.146;17.098;2022-09-17T10:47:40;98837.69;;;19.34
42197;BMP280;27866;48.146;17.098;2022-09-17T10:52:02;98846.66;;;20.78
42197;BMP280;27866;48.146;17.098;2022-09-17T10:56:24;98843.19;;;22.10
42197;BMP280;27866;48.146;17.098;2022-09-17T11:10:08;98800.91;;;21.91
42197;BMP280;27866;48.146;17.098;2022-09-17T11:14:37;98803.56;;;21.59
42197;BMP280;27866;48.146;17.098;2022-09-17T11:28:20;98822.75;;;21.20
42197;BMP280;27866;48.146;17.098;2022-09-17T11:42:23;98841.50;;;20.50
42197;BMP280;27866;48.146;17.098;2022-09-17T11:46:49;98819.97;;;20.40
42197;BMP280;27866;48.146;17.098;2022-09-17T11:55:34;98800.44;;;20.15
42197;BMP280;27866;48.146;17.098;2022-09-17T12:09:11;98782.84;;;19.39
42197;BMP280;27866;48.146;17.098;2022-09-17T12:13:42;98793.63;;;19.15
42197;BMP280;27866;48.146;17.098;2022-09-17T12:22:48;98763.13;;;19.43
42197;BMP280;27866;48.146;17.098;2022-09-17T12:27:51;98788.47;;;19.64
42197;BMP280;27866;48.146;17.098;2022-09-17T12:37:20;98804.78;;;19.73
42197;BMP280;27866;48.146;17.098;2022-09-17T12:56:05;98710.53;;;19.50
42197;BMP280;27866;48.146;17.098;2022-09-17T13:00:19;98697.81;;;19.68
42197;BMP280;27866;48.146;17.098;2022-09-17T13:18:33;98757.13;;;19.20
42197;BMP280;27866;48.146;17.098;2022-09-17T13:22:51;98768.50;;;18.99
42197;BMP280;27866;48.146;17.098;2022-09-17T13:27:04;98760.78;;;18.84
42197;BMP280;27866;48.146;17.098;2022-09-17T13:35:54;98743.78;;;18.80
42197;BMP280;27866;48.146;17.098;2022-09-17T13:40:35;98739.25;;;18.52
42197;BMP280;27866;48.146;17.098;2022-09-17T13:45:02;98738.09;;;18.33
42197;BMP280;27866;48.146;17.098;2022-09-17T13:49:15;98754.06;;;18.45
42197;BMP280;27866;48.146;17.098;2022-09-17T13:53:27;98764.84;;;18.50
42197;BMP280;27866;48.146;17.098;2022-09-17T13:57:48;98789.59;;;18.48
42197;BMP280;27866;48.146;17.098;2022-09-17T14:10:41;98798.97;;;17.91
42197;BMP280;27866;48.146;17.098;2022-09-17T14:14:53;98788.56;;;17.76
42197;BMP280;27866;48.146;17.098;2022-09-17T14:19:31;98768.16;;;17.71
42197;BMP280;27866;48.146;17.098;2022-09-17T14:23:49;98772.41;;;17.72
42197;BMP280;27866;48.146;17.098;2022-09-17T14:37:23;98776.06;;;17.56
42197;BMP280;27866;48.146;17.098;2022-09-17T14:41:39;98763.25;;;17.61
42197;BMP280;27866;48.146;17.098;2022-09-17T14:45:53;98763.25;;;17.61
42197;BMP280;27866;48.146;17.098;2022-09-17T14:50:23;98763.06;;;17.70
42197;BMP280;27866;48.146;17.098;2022-09-17T14:54:35;98748.78;;;17.80
42197;BMP280;27866;48.146;17.098;2022-09-17T14:58:52;98752.47;;;17.71
42197;BMP280;27866;48.146;17.098;2022-09-17T15:03:05;98745.78;;;17.54
42197;BMP280;27866;48.146;17.098;2022-09-17T15:07:16;98752.53;;;17.48
42197;BMP280;27866;48.146;17.098;2022-09-17T15:11:40;98755.13;;;17.56
42197;BMP280;27866;48.146;17.098;2022-09-17T15:16:20;98750.19;;;17.53
42197;BMP280;27866;48.146;17.098;2022-09-17T15:20:33;98755.78;;;17.50
42197;BMP280;27866;48.146;17.098;2022-09-17T15:24:58;98749.25;;;17.46
42197;BMP280;27866;48.146;17.098;2022-09-17T15:29:13;98749.25;;;17.46
42197;BMP280;27866;48.146;17.098;2022-09-17T15:33:26;98740.78;;;17.44
42197;BMP280;27866;48.146;17.098;2022-09-17T15:38:01;98743.09;;;17.40
42197;BMP280;27866;48.146;17.098;2022-09-17T15:42:25;98741.44;;;17.39
42197;BMP280;27866;48.146;17.098;2022-09-17T15:46:37;98749.66;;;17.36
42197;BMP280;27866;48.146;17.098;2022-09-17T15:51:00;98751.66;;;17.26
42197;BMP280;27866;48.146;17.098;2022-09-17T15:55:33;98736.63;;;17.20
42197;BMP280;27866;48.146;17.098;2022-09-17T15:59:45;98727.78;;;17.21
42197;BMP280;27866;48.146;17.098;2022-09-17T16:04:22;98737.75;;;17.18
42197;BMP280;27866;48.146;17.098;2022-09-17T16:08:34;98736.28;;;17.23
42197;BMP280;27866;48.146;17.098;2022-09-17T16:12:48;98732.34;;;17.27
42197;BMP280;27866;48.146;17.098;2022-09-17T16:17:08;98730.72;;;17.26
42197;BMP280;27866;48.146;17.098;2022-09-17T16:21:19;98726.94;;;17.28
42197;BMP280;27866;48.146;17.098;2022-09-17T16:25:31;98722.22;;;17.24
42197;BMP280;27866;48.146;17.098;2022-09-17T16:29:42;98717.44;;;17.27
42197;BMP280;27866;48.146;17.098;2022-09-17T16:33:54;98722.84;;;17.34
42197;BMP280;27866;48.146;17.098;2022-09-17T16:38:06;98726.41;;;17.33
42197;BMP280;27866;48.146;17.098;2022-09-17T16:42:18;98729.72;;;17.27
42197;BMP280;27866;48.146;17.098;2022-09-17T16:46:30;98720.25;;;17.26
42197;BMP280;27866;48.146;17.098;2022-09-17T16:50:41;98730.06;;;17.24
42197;BMP280;27866;48.146;17.098;2022-09-17T16:54:53;98726.44;;;17.25
42197;BMP280;27866;48.146;17.098;2022-09-17T16:59:04;98721.09;;;17.19
42197;BMP280;27866;48.146;17.098;2022-09-17T17:03:16;98722.91;;;17.18
42197;BMP280;27866;48.146;17.098;2022-09-17T17:07:27;98720.75;;;17.22
42197;BMP280;27866;48.146;17.098;2022-09-17T17:11:39;98722.22;;;17.24
42197;BMP280;27866;48.146;17.098;2022-09-17T17:15:50;98727.09;;;17.27
42197;BMP280;27866;48.146;17.098;2022-09-17T17:20:04;98719.63;;;17.16
42197;BMP280;27866;48.146;17.098;2022-09-17T17:24:18;98722.28;;;17.09
42197;BMP280;27866;48.146;17.098;2022-09-17T17:28:32;98731.59;;;17.11
42197;BMP280;27866;48.146;17.098;2022-09-17T17:32:48;98737.16;;;17.00
42197;BMP280;27866;48.146;17.098;2022-09-17T17:37:00;98738.81;;;17.01
42197;BMP280;27866;48.146;17.098;2022-09-17T17:41:13;98750.25;;;16.93
42197;BMP280;27866;48.146;17.098;2022-09-17T17:45:25;98755.66;;;16.91
42197;BMP280;27866;48.146;17.098;2022-09-17T17:49:36;98763.19;;;16.86
42197;BMP280;27866;48.146;17.098;2022-09-17T17:53:48;98763.69;;;16.82
42197;BMP280;27866;48.146;17.098;2022-09-17T17:57:59;98768.22;;;16.80
42197;BMP280;27866;48.146;17.098;2022-09-17T18:02:11;98773.94;;;16.76
42197;BMP280;27866;48.146;17.098;2022-09-17T18:06:22;98777.22;;;16.85
42197;BMP280;27866;48.146;17.098;2022-09-17T18:10:33;98789.66;;;16.83
42197;BMP280;27866;48.146;17.098;2022-09-17T18:14:45;98787.66;;;16.78
42197;BMP280;27866;48.146;17.098;2022-09-17T18:18:57;98792.75;;;16.79
42197;BMP280;27866;48.146;17.098;2022-09-17T18:23:08;98801.09;;;16.75
42197;BMP280;27866;48.146;17.098;2022-09-17T18:27:20;98799.94;;;16.77
42197;BMP280;27866;48.146;17.098;2022-09-17T18:31:33;98807.94;;;16.76
42197;BMP280;27866;48.146;17.098;2022-09-17T18:35:46;98815.81;;;16.68
42197;BMP280;27866;48.146;17.098;2022-09-17T18:39:57;98833.09;;;16.61
42197;BMP280;27866;48.146;17.098;2022-09-17T18:44:10;98840.47;;;16.58
42197;BMP280;27866;48.146;17.098;2022-09-17T18:48:23;98835.66;;;16.30
42197;BMP280;27866;48.146;17.098;2022-09-17T18:52:34;98848.34;;;16.02
42197;BMP280;27866;48.146;17.098;2022-09-17T18:56:46;98849.94;;;15.88
42197;BMP280;27866;48.146;17.098;2022-09-17T19:00:57;98857.44;;;15.91
42197;BMP280;27866;48.146;17.098;2022-09-17T19:05:09;98862.00;;;15.89
42197;BMP280;27866;48.146;17.098;2022-09-17T19:09:20;98854.44;;;15.78
42197;BMP280;27866;48.146;17.098;2022-09-17T19:13:43;98855.75;;;15.82
42197;BMP280;27866;48.146;17.098;2022-09-17T19:17:55;98855.00;;;15.89
42197;BMP280;27866;48.146;17.098;2022-09-17T19:22:08;98854.69;;;15.92
42197;BMP280;27866;48.146;17.098;2022-09-17T19:26:24;98843.44;;;15.92
42197;BMP280;27866;48.146;17.098;2022-09-17T19:30:35;98845.94;;;15.76
42197;BMP280;27866;48.146;17.098;2022-09-17T19:34:47;98833.22;;;15.73
42197;BMP280;27866;48.146;17.098;2022-09-17T19:38:58;98835.97;;;15.72
42197;BMP280;27866;48.146;17.098;2022-09-17T19:43:10;98835.00;;;15.73
42197;BMP280;27866;48.146;17.098;2022-09-17T19:47:21;98834.66;;;15.76
42197;BMP280;27866;48.146;17.098;2022-09-17T19:51:33;98833.50;;;15.70
42197;BMP280;27866;48.146;17.098;2022-09-17T19:55:45;98846.09;;;15.75
42197;BMP280;27866;48.146;17.098;2022-09-17T19:59:57;98843.34;;;15.76
42197;BMP280;27866;48.146;17.098;2022-09-17T20:04:08;98851.81;;;15.78
42197;BMP280;27866;48.146;17.098;2022-09-17T20:08:20;98846.34;;;15.89
42197;BMP280;27866;48.146;17.098;2022-09-17T20:12:31;98838.19;;;15.92
42197;BMP280;27866;48.146;17.098;2022-09-17T20:16:43;98833.94;;;15.91
42197;BMP280;27866;48.146;17.098;2022-09-17T20:20:54;98839.66;;;15.86
42197;BMP280;27866;48.146;17.098;2022-09-17T20:25:07;98830.94;;;15.78
42197;BMP280;27866;48.146;17.098;2022-09-17T20:29:18;98822.38;;;15.61
42197;BMP280;27866;48.146;17.098;2022-09-17T20:33:30;98840.81;;;15.59
42197;BMP280;27866;48.146;17.098;2022-09-17T20:37:41;98852.38;;;15.57
42197;BMP280;27866;48.146;17.098;2022-09-17T20:41:52;98852.97;;;15.43
42197;BMP280;27866;48.146;17.098;2022-09-17T20:46:06;98848.66;;;15.35
42197;BMP280;27866;48.146;17.098;2022-09-17T20:50:18;98860.22;;;15.32
42197;BMP280;27866;48.146;17.098;2022-09-17T20:54:29;98860.22;;;15.24
42197;BMP280;27866;48.146;17.098;2022-09-17T20:58:44;98859.38;;;15.24
42197;BMP280;27866;48.146;17.098;2022-09-17T21:02:58;98863.25;;;15.20
42197;BMP280;27866;48.146;17.098;2022-09-17T21:07:10;98867.38;;;15.22
42197;BMP280;27866;48.146;17.098;2022-09-17T21:11:22;98869.91;;;15.15
42197;BMP280;27866;48.146;17.098;2022-09-17T21:15:34;98879.81;;;15.11
42197;BMP280;27866;48.146;17.098;2022-09-17T21:19:45;98883.09;;;15.13
42197;BMP280;27866;48.146;17.098;2022-09-17T21:24:02;98890.91;;;15.13
42197;BMP280;27866;48.146;17.098;2022-09-17T21:28:14;98895.44;;;15.11
42197;BMP280;27866;48.146;17.098;2022-09-17T21:32:30;98894.44;;;15.05
42197;BMP280;27866;48.146;17.098;2022-09-17T21:36:42;98902.19;;;14.97
42197;BMP280;27866;48.146;17.098;2022-09-17T21:40:56;98900.84;;;14.93
42197;BMP280;27866;48.146;17.098;2022-09-17T21:45:07;98905.06;;;14.86
42197;BMP280;27866;48.146;17.098;2022-09-17T21:49:19;98910.69;;;14.82
42197;BMP280;27866;48.146;17.098;2022-09-17T21:53:30;98909.19;;;14.79
42197;BMP280;27866;48.146;17.098;2022-09-17T21:57:42;98914.38;;;14.79
42197;BMP280;27866;48.146;17.098;2022-09-17T22:01:54;98918.81;;;14.79
42197;BMP280;27866;48.146;17.098;2022-09-17T22:06:18;98928.41;;;14.78
42197;BMP280;27866;48.146;17.098;2022-09-17T22:10:31;98921.69;;;14.76
42197;BMP280;27866;48.146;17.098;2022-09-17T22:14:42;98922.72;;;14.66
42197;BMP280;27866;48.146;17.098;2022-09-17T22:18:54;98925.19;;;14.67
42197;BMP280;27866;48.146;17.098;2022-09-17T22:23:05;98921.78;;;14.67
42197;BMP280;27866;48.146;17.098;2022-09-17T22:27:16;98920.28;;;14.64
42197;BMP280;27866;48.146;17.098;2022-09-17T22:31:28;98921.53;;;14.61
42197;BMP280;27866;48.146;17.098;2022-09-17T22:35:39;98923.94;;;14.54
42197;BMP280;27866;48.146;17.098;2022-09-17T22:39:51;98921.25;;;14.47
42197;BMP280;27866;48.146;17.098;2022-09-17T22:44:09;98923.84;;;14.47
42197;BMP280;27866;48.146;17.098;2022-09-17T22:48:21;98920.19;;;14.40
42197;BMP280;27866;48.146;17.098;2022-09-17T22:52:32;98922.13;;;14.38
42197;BMP280;27866;48.146;17.098;2022-09-17T22:56:46;98926.97;;;14.33
42197;BMP280;27866;48.146;17.098;2022-09-17T23:01:04;98920.91;;;14.33
42197;BMP280;27866;48.146;17.098;2022-09-17T23:05:16;98927.53;;;14.27
42197;BMP280;27866;48.146;17.098;2022-09-17T23:09:28;98937.44;;;14.24
42197;BMP280;27866;48.146;17.098;2022-09-17T23:13:40;98929.38;;;14.18
42197;BMP280;27866;48.146;17.098;2022-09-17T23:17:52;98927.19;;;14.13
42197;BMP280;27866;48.146;17.098;2022-09-17T23:22:04;98925.59;;;14.12
42197;BMP280;27866;48.146;17.098;2022-09-17T23:26:19;98931.06;;;14.09
42197;BMP280;27866;48.146;17.098;2022-09-17T23:30:31;98919.97;;;14.07
42197;BMP280;27866;48.146;17.098;2022-09-17T23:34:42;98926.69;;;14.10
42197;BMP280;27866;48.146;17.098;2022-09-17T23:38:55;98918.50;;;14.05
42197;BMP280;27866;48.146;17.098;2022-09-17T23:43:07;98924.81;;;14.03
42197;BMP280;27866;48.146;17.098;2022-09-17T23:47:18;98928.66;;;13.99
42197;BMP280;27866;48.146;17.098;2022-09-17T23:51:33;98927.47;;;13.93
42197;BMP280;27866;48.146;17.098;2022-09-17T23:55:47;98929.66;;;13.89
42197;BMP280;27866;48.146;17.098;2022-09-17T23:59:59;98931.94;;;14.01
